RYR6734 EPKK-LIEO
Flight info
| Callsign | RYR6734 |
|---|---|
| Flight time | 2h 4m |
| Altitude | 36000 |
| Route | BABKO DCT VADEX L856 KOPAT DCT MAREG DCT GIRDA DCT BAXON DCT GITRI |
| Aircraft | B738/M-SDE2E3FGHIRWXY/LB1 |
Departure
| Time | 2026-05-07 18:10 |
|---|---|
| Airport | Kraków John Paul II International Airport (EPKK) |
Arrival
| Time | 2026-05-07 20:14 |
|---|---|
| Airport | Olbia Costa Smeralda Airport (LIEO) |
| Time | Latitude | Longitude | Altitude | Speed | Heading |
|---|---|---|---|---|---|
| 2026-05-07 16:58 | 50.07328 | 19.80106 | 799 ft | 0 kts | 168° |
| 2026-05-07 17:57 | 50.07340 | 19.80102 | 799 ft | 4 kts | 168° |
| 2026-05-07 17:58 | 50.07367 | 19.80093 | 799 ft | 4 kts | 168° |
| 2026-05-07 17:58 | 50.07388 | 19.80087 | 799 ft | 4 kts | 156° |
| 2026-05-07 17:58 | 50.07403 | 19.80064 | 799 ft | 4 kts | 89° |
| 2026-05-07 17:58 | 50.07399 | 19.80027 | 799 ft | 3 kts | 77° |
| 2026-05-07 17:59 | 50.07398 | 19.80022 | 799 ft | 3 kts | 77° |
| 2026-05-07 18:03 | 50.07401 | 19.80042 | 799 ft | 7 kts | 77° |
| 2026-05-07 18:03 | 50.07419 | 19.80170 | 799 ft | 17 kts | 77° |
| 2026-05-07 18:03 | 50.07448 | 19.80350 | 799 ft | 15 kts | 58° |
| 2026-05-07 18:04 | 50.07530 | 19.80407 | 799 ft | 11 kts | 17° |
| 2026-05-07 18:04 | 50.07604 | 19.80418 | 799 ft | 11 kts | 348° |
| 2026-05-07 18:04 | 50.07675 | 19.80393 | 799 ft | 10 kts | 347° |
| 2026-05-07 18:04 | 50.07745 | 19.80369 | 799 ft | 10 kts | 347° |
| 2026-05-07 18:05 | 50.07814 | 19.80346 | 799 ft | 10 kts | 348° |
| 2026-05-07 18:05 | 50.07836 | 19.80339 | 799 ft | 0 kts | 348° |
| 2026-05-07 18:07 | 50.07837 | 19.80339 | 799 ft | 1 kts | 348° |
| 2026-05-07 18:07 | 50.07897 | 19.80319 | 799 ft | 16 kts | 348° |
| 2026-05-07 18:08 | 50.08003 | 19.80279 | 798 ft | 14 kts | 334° |
| 2026-05-07 18:08 | 50.08015 | 19.80206 | 799 ft | 0 kts | 258° |
| 2026-05-07 18:09 | 50.08013 | 19.80191 | 799 ft | 7 kts | 257° |
| 2026-05-07 18:09 | 50.07952 | 19.79759 | 799 ft | 77 kts | 258° |
| 2026-05-07 18:09 | 50.07790 | 19.78610 | 800 ft | 139 kts | 257° |
| 2026-05-07 18:10 | 50.07547 | 19.76940 | 1050 ft | 168 kts | 257° |
| 2026-05-07 18:10 | 50.07305 | 19.75126 | 1754 ft | 171 kts | 256° |
| 2026-05-07 18:10 | 50.07062 | 19.73403 | 2691 ft | 164 kts | 258° |
| 2026-05-07 18:10 | 50.06820 | 19.71692 | 3468 ft | 162 kts | 258° |
| 2026-05-07 18:11 | 50.06575 | 19.69959 | 4132 ft | 170 kts | 258° |
| 2026-05-07 18:11 | 50.06384 | 19.68728 | 4351 ft | 189 kts | 251° |
| 2026-05-07 18:11 | 50.05015 | 19.66772 | 4605 ft | 227 kts | 199° |
| 2026-05-07 18:11 | 50.03408 | 19.66118 | 4837 ft | 255 kts | 197° |
| 2026-05-07 18:12 | 50.01655 | 19.65414 | 5475 ft | 264 kts | 197° |
| 2026-05-07 18:12 | 49.99882 | 19.64680 | 6337 ft | 267 kts | 198° |
| 2026-05-07 18:12 | 49.98117 | 19.63923 | 7165 ft | 268 kts | 198° |
| 2026-05-07 18:12 | 49.96327 | 19.63135 | 8002 ft | 271 kts | 198° |
| 2026-05-07 18:13 | 49.94547 | 19.62335 | 8816 ft | 273 kts | 198° |
| 2026-05-07 18:13 | 49.92726 | 19.61506 | 9637 ft | 276 kts | 198° |
| 2026-05-07 18:13 | 49.90886 | 19.60661 | 10347 ft | 282 kts | 198° |
| 2026-05-07 18:13 | 49.88939 | 19.59759 | 10541 ft | 307 kts | 198° |
| 2026-05-07 18:14 | 49.86857 | 19.58791 | 10750 ft | 329 kts | 198° |
| 2026-05-07 18:14 | 49.84642 | 19.57763 | 11286 ft | 338 kts | 198° |
| 2026-05-07 18:14 | 49.82400 | 19.56722 | 12027 ft | 340 kts | 198° |
| 2026-05-07 18:14 | 49.80149 | 19.55678 | 12861 ft | 340 kts | 198° |
| 2026-05-07 18:15 | 49.77902 | 19.54635 | 13670 ft | 342 kts | 198° |
| 2026-05-07 18:15 | 49.75634 | 19.53583 | 14354 ft | 345 kts | 198° |
| 2026-05-07 18:15 | 49.73343 | 19.52520 | 15027 ft | 347 kts | 198° |
| 2026-05-07 18:15 | 49.71041 | 19.51452 | 15680 ft | 350 kts | 198° |
| 2026-05-07 18:16 | 49.68711 | 19.50373 | 16331 ft | 353 kts | 198° |
| 2026-05-07 18:16 | 49.66367 | 19.49289 | 16976 ft | 355 kts | 198° |
| 2026-05-07 18:16 | 49.64024 | 19.48171 | 17634 ft | 357 kts | 201° |
| 2026-05-07 18:16 | 49.61797 | 19.46523 | 18257 ft | 358 kts | 211° |
| 2026-05-07 18:17 | 49.59739 | 19.44358 | 18796 ft | 361 kts | 218° |
| 2026-05-07 18:17 | 49.57920 | 19.41712 | 19342 ft | 364 kts | 225° |
| 2026-05-07 18:17 | 49.56183 | 19.38882 | 19813 ft | 368 kts | 225° |
| 2026-05-07 18:17 | 49.54442 | 19.36004 | 20274 ft | 372 kts | 225° |
| 2026-05-07 18:18 | 49.52686 | 19.33101 | 20768 ft | 374 kts | 225° |
| 2026-05-07 18:18 | 49.50910 | 19.30180 | 21196 ft | 378 kts | 224° |
| 2026-05-07 18:18 | 49.49109 | 19.27234 | 21671 ft | 382 kts | 224° |
| 2026-05-07 18:18 | 49.47292 | 19.24274 | 22160 ft | 385 kts | 224° |
| 2026-05-07 18:19 | 49.45457 | 19.21294 | 22651 ft | 388 kts | 224° |
| 2026-05-07 18:19 | 49.43606 | 19.18295 | 23108 ft | 391 kts | 223° |
| 2026-05-07 18:19 | 49.41737 | 19.15271 | 23536 ft | 394 kts | 223° |
| 2026-05-07 18:19 | 49.39852 | 19.12228 | 23943 ft | 397 kts | 223° |
| 2026-05-07 18:20 | 49.37962 | 19.09176 | 24415 ft | 397 kts | 223° |
| 2026-05-07 18:20 | 49.36066 | 19.06118 | 24881 ft | 397 kts | 223° |
| 2026-05-07 18:20 | 49.34170 | 19.03064 | 25283 ft | 399 kts | 223° |
| 2026-05-07 18:20 | 49.32300 | 19.00053 | 25892 ft | 394 kts | 223° |
| 2026-05-07 18:21 | 49.30511 | 18.97178 | 26401 ft | 394 kts | 223° |
| 2026-05-07 18:21 | 49.28595 | 18.94103 | 26698 ft | 397 kts | 223° |
| 2026-05-07 18:21 | 49.26692 | 18.91056 | 27011 ft | 400 kts | 223° |
| 2026-05-07 18:21 | 49.24798 | 18.88027 | 27320 ft | 402 kts | 223° |
| 2026-05-07 18:22 | 49.22846 | 18.84907 | 27674 ft | 404 kts | 223° |
| 2026-05-07 18:22 | 49.21565 | 18.82862 | 27912 ft | 405 kts | 223° |
| 2026-05-07 18:22 | 49.18992 | 18.78759 | 28342 ft | 407 kts | 223° |
| 2026-05-07 18:22 | 49.17040 | 18.75646 | 28642 ft | 409 kts | 223° |
| 2026-05-07 18:23 | 49.15077 | 18.72518 | 28953 ft | 411 kts | 223° |
| 2026-05-07 18:23 | 49.13106 | 18.69384 | 29322 ft | 411 kts | 223° |
| 2026-05-07 18:23 | 49.11142 | 18.66265 | 29820 ft | 408 kts | 223° |
| 2026-05-07 18:23 | 49.09293 | 18.63037 | 30324 ft | 405 kts | 227° |
| 2026-05-07 18:24 | 49.07541 | 18.59728 | 30731 ft | 403 kts | 227° |
| 2026-05-07 18:24 | 49.05801 | 18.56410 | 31063 ft | 402 kts | 227° |
| 2026-05-07 18:24 | 49.04065 | 18.53100 | 31383 ft | 402 kts | 227° |
| 2026-05-07 18:24 | 49.02333 | 18.49804 | 31747 ft | 400 kts | 227° |
| 2026-05-07 18:25 | 49.00606 | 18.46531 | 32135 ft | 398 kts | 227° |
| 2026-05-07 18:25 | 48.98901 | 18.43308 | 32508 ft | 395 kts | 227° |
| 2026-05-07 18:25 | 48.97186 | 18.40073 | 32812 ft | 395 kts | 227° |
| 2026-05-07 18:25 | 48.95465 | 18.36842 | 33063 ft | 395 kts | 227° |
| 2026-05-07 18:26 | 48.93748 | 18.33619 | 33403 ft | 394 kts | 227° |
| 2026-05-07 18:26 | 48.92034 | 18.30403 | 33636 ft | 395 kts | 227° |
| 2026-05-07 18:26 | 48.90306 | 18.27168 | 33911 ft | 395 kts | 227° |
| 2026-05-07 18:26 | 48.88589 | 18.23954 | 34163 ft | 395 kts | 228° |
| 2026-05-07 18:27 | 48.86853 | 18.20713 | 34206 ft | 401 kts | 228° |
| 2026-05-07 18:27 | 48.85099 | 18.17439 | 34348 ft | 402 kts | 228° |
| 2026-05-07 18:27 | 48.83345 | 18.14169 | 34665 ft | 400 kts | 229° |
| 2026-05-07 18:27 | 48.82192 | 18.12021 | 34845 ft | 399 kts | 229° |
| 2026-05-07 18:28 | 48.79854 | 18.07672 | 35067 ft | 401 kts | 229° |
| 2026-05-07 18:28 | 48.78096 | 18.04408 | 35225 ft | 402 kts | 229° |
| 2026-05-07 18:28 | 48.76335 | 18.01140 | 35397 ft | 403 kts | 229° |
| 2026-05-07 18:28 | 48.74654 | 17.98027 | 35560 ft | 403 kts | 229° |
| 2026-05-07 18:29 | 48.72891 | 17.94763 | 35765 ft | 403 kts | 229° |
| 2026-05-07 18:29 | 48.71123 | 17.91496 | 35944 ft | 404 kts | 229° |
| 2026-05-07 18:29 | 48.69346 | 17.88217 | 35946 ft | 407 kts | 229° |
| 2026-05-07 18:30 | 48.65786 | 17.81657 | 35956 ft | 404 kts | 229° |
| 2026-05-07 18:30 | 48.62248 | 17.75153 | 35962 ft | 401 kts | 229° |
| 2026-05-07 18:31 | 48.58759 | 17.68756 | 35953 ft | 399 kts | 229° |
| 2026-05-07 18:31 | 48.55256 | 17.62347 | 35964 ft | 397 kts | 229° |
| 2026-05-07 18:32 | 48.51728 | 17.55911 | 35971 ft | 398 kts | 229° |
| 2026-05-07 18:32 | 48.48214 | 17.49515 | 35976 ft | 406 kts | 230° |
| 2026-05-07 18:33 | 48.44566 | 17.42891 | 35984 ft | 415 kts | 230° |
| 2026-05-07 18:33 | 48.40903 | 17.36254 | 35971 ft | 417 kts | 230° |
| 2026-05-07 18:34 | 48.37257 | 17.29665 | 35963 ft | 407 kts | 230° |
| 2026-05-07 18:34 | 48.33657 | 17.23173 | 35979 ft | 407 kts | 230° |
| 2026-05-07 18:35 | 48.30043 | 17.16675 | 35978 ft | 409 kts | 230° |
| 2026-05-07 18:35 | 48.26408 | 17.10151 | 35994 ft | 410 kts | 230° |
| 2026-05-07 18:36 | 48.22761 | 17.03618 | 35994 ft | 411 kts | 230° |
| 2026-05-07 18:36 | 48.19146 | 16.97327 | 35992 ft | 412 kts | 225° |
| 2026-05-07 18:37 | 48.14697 | 16.92015 | 36001 ft | 412 kts | 217° |
| 2026-05-07 18:37 | 48.10103 | 16.86990 | 36014 ft | 411 kts | 218° |
| 2026-05-07 18:38 | 48.05530 | 16.81961 | 36004 ft | 410 kts | 218° |
| 2026-05-07 18:38 | 48.00982 | 16.76945 | 36015 ft | 408 kts | 218° |
| 2026-05-07 18:39 | 47.96460 | 16.71961 | 36016 ft | 407 kts | 218° |
| 2026-05-07 18:39 | 47.91943 | 16.66991 | 36017 ft | 405 kts | 218° |
| 2026-05-07 18:40 | 47.87439 | 16.62046 | 36017 ft | 404 kts | 218° |
| 2026-05-07 18:40 | 47.82941 | 16.57118 | 36019 ft | 403 kts | 218° |
| 2026-05-07 18:41 | 47.78451 | 16.52212 | 36021 ft | 403 kts | 218° |
| 2026-05-07 18:41 | 47.73965 | 16.47320 | 36024 ft | 403 kts | 218° |
| 2026-05-07 18:42 | 47.69469 | 16.42427 | 36025 ft | 403 kts | 218° |
| 2026-05-07 18:42 | 47.64975 | 16.37548 | 36030 ft | 403 kts | 218° |
| 2026-05-07 18:43 | 47.61233 | 16.33493 | 36027 ft | 404 kts | 218° |
| 2026-05-07 18:43 | 47.55985 | 16.27819 | 36035 ft | 405 kts | 218° |
| 2026-05-07 18:44 | 47.51449 | 16.22926 | 36033 ft | 406 kts | 218° |
| 2026-05-07 18:44 | 47.47650 | 16.18836 | 36033 ft | 406 kts | 218° |
| 2026-05-07 18:45 | 47.43111 | 16.13960 | 36034 ft | 406 kts | 218° |
| 2026-05-07 18:45 | 47.38579 | 16.09101 | 36038 ft | 405 kts | 218° |
| 2026-05-07 18:46 | 47.34043 | 16.04250 | 36030 ft | 404 kts | 218° |
| 2026-05-07 18:46 | 47.29656 | 15.99567 | 36023 ft | 403 kts | 218° |
| 2026-05-07 18:47 | 47.25149 | 15.94767 | 36024 ft | 401 kts | 218° |
| 2026-05-07 18:47 | 47.20664 | 15.90001 | 36028 ft | 399 kts | 218° |
| 2026-05-07 18:48 | 47.16198 | 15.85263 | 36053 ft | 398 kts | 218° |
| 2026-05-07 18:48 | 47.11733 | 15.80538 | 36010 ft | 398 kts | 218° |
| 2026-05-07 18:49 | 47.07262 | 15.75815 | 36020 ft | 399 kts | 218° |
| 2026-05-07 18:49 | 47.02770 | 15.71081 | 36031 ft | 401 kts | 218° |
| 2026-05-07 18:50 | 46.98272 | 15.66349 | 36027 ft | 403 kts | 218° |
| 2026-05-07 18:50 | 46.93735 | 15.61587 | 36003 ft | 405 kts | 218° |
| 2026-05-07 18:51 | 46.89137 | 15.56773 | 36018 ft | 407 kts | 218° |
| 2026-05-07 18:51 | 46.84593 | 15.52025 | 36023 ft | 408 kts | 218° |
| 2026-05-07 18:52 | 46.79994 | 15.47229 | 36023 ft | 408 kts | 218° |
| 2026-05-07 18:52 | 46.75400 | 15.42451 | 36010 ft | 408 kts | 218° |
| 2026-05-07 18:53 | 46.70804 | 15.37679 | 36016 ft | 407 kts | 218° |
| 2026-05-07 18:53 | 46.66230 | 15.32940 | 36007 ft | 405 kts | 218° |
| 2026-05-07 18:54 | 46.61666 | 15.28222 | 36013 ft | 404 kts | 218° |
| 2026-05-07 18:54 | 46.57115 | 15.23527 | 35994 ft | 403 kts | 218° |
| 2026-05-07 18:55 | 46.52583 | 15.18860 | 35980 ft | 400 kts | 219° |
| 2026-05-07 18:55 | 46.48082 | 15.14236 | 36008 ft | 399 kts | 219° |
| 2026-05-07 18:56 | 46.43606 | 15.09646 | 36001 ft | 398 kts | 219° |
| 2026-05-07 18:56 | 46.39114 | 15.05051 | 36008 ft | 398 kts | 219° |
| 2026-05-07 18:57 | 46.34613 | 15.00455 | 35997 ft | 398 kts | 219° |
| 2026-05-07 18:57 | 46.30210 | 14.95967 | 36024 ft | 399 kts | 219° |
| 2026-05-07 18:58 | 46.25679 | 14.91358 | 36023 ft | 402 kts | 219° |
| 2026-05-07 18:58 | 46.21108 | 14.86716 | 36016 ft | 407 kts | 219° |
| 2026-05-07 18:59 | 46.16472 | 14.82022 | 35995 ft | 410 kts | 219° |
| 2026-05-07 18:59 | 46.11867 | 14.77373 | 35998 ft | 402 kts | 219° |
| 2026-05-07 19:00 | 46.07330 | 14.72800 | 35992 ft | 399 kts | 219° |
| 2026-05-07 19:00 | 46.02813 | 14.68250 | 36012 ft | 398 kts | 219° |
| 2026-05-07 19:01 | 45.98318 | 14.63736 | 36009 ft | 399 kts | 219° |
| 2026-05-07 19:01 | 45.93791 | 14.59196 | 36022 ft | 400 kts | 219° |
| 2026-05-07 19:02 | 45.89245 | 14.54648 | 36020 ft | 401 kts | 219° |
| 2026-05-07 19:02 | 45.84692 | 14.50103 | 36039 ft | 402 kts | 219° |
| 2026-05-07 19:03 | 45.80113 | 14.45540 | 36038 ft | 404 kts | 219° |
| 2026-05-07 19:03 | 45.75522 | 14.40974 | 36049 ft | 405 kts | 219° |
| 2026-05-07 19:04 | 45.70910 | 14.36399 | 36052 ft | 406 kts | 219° |
| 2026-05-07 19:04 | 45.66319 | 14.31852 | 36040 ft | 407 kts | 219° |
| 2026-05-07 19:05 | 45.61701 | 14.27287 | 36047 ft | 406 kts | 219° |
| 2026-05-07 19:05 | 45.57080 | 14.22728 | 36047 ft | 405 kts | 219° |
| 2026-05-07 19:06 | 45.52450 | 14.18169 | 36047 ft | 403 kts | 219° |
| 2026-05-07 19:06 | 45.45371 | 14.11857 | 36049 ft | 406 kts | 210° |
| 2026-05-07 19:07 | 45.40246 | 14.08606 | 36061 ft | 405 kts | 210° |
| 2026-05-07 19:07 | 45.35134 | 14.05362 | 36042 ft | 404 kts | 210° |
| 2026-05-07 19:08 | 45.30071 | 14.02126 | 36003 ft | 404 kts | 210° |
| 2026-05-07 19:08 | 45.25111 | 13.98953 | 36037 ft | 402 kts | 210° |
| 2026-05-07 19:09 | 45.20032 | 13.95700 | 36032 ft | 403 kts | 210° |
| 2026-05-07 19:09 | 45.14952 | 13.92454 | 36039 ft | 403 kts | 210° |
| 2026-05-07 19:10 | 45.09856 | 13.89206 | 36022 ft | 404 kts | 210° |
| 2026-05-07 19:10 | 45.04751 | 13.85958 | 36033 ft | 405 kts | 210° |
| 2026-05-07 19:11 | 44.99650 | 13.82720 | 36048 ft | 406 kts | 210° |
| 2026-05-07 19:11 | 44.94523 | 13.79472 | 36047 ft | 407 kts | 210° |
| 2026-05-07 19:12 | 44.89386 | 13.76224 | 36040 ft | 406 kts | 210° |
| 2026-05-07 19:12 | 44.84261 | 13.72990 | 36043 ft | 406 kts | 210° |
| 2026-05-07 19:13 | 44.79133 | 13.69760 | 36040 ft | 405 kts | 210° |
| 2026-05-07 19:13 | 44.74019 | 13.66545 | 36020 ft | 405 kts | 210° |
| 2026-05-07 19:14 | 44.68918 | 13.63344 | 36024 ft | 404 kts | 210° |
| 2026-05-07 19:14 | 44.63850 | 13.60170 | 36024 ft | 403 kts | 210° |
| 2026-05-07 19:15 | 44.58755 | 13.56985 | 36019 ft | 403 kts | 210° |
| 2026-05-07 19:15 | 44.53630 | 13.53787 | 36009 ft | 402 kts | 210° |
| 2026-05-07 19:16 | 44.48583 | 13.50642 | 36015 ft | 402 kts | 210° |
| 2026-05-07 19:16 | 44.43496 | 13.47480 | 36023 ft | 402 kts | 210° |
| 2026-05-07 19:17 | 44.38797 | 13.43564 | 36010 ft | 393 kts | 221° |
| 2026-05-07 19:17 | 44.34416 | 13.39066 | 36009 ft | 393 kts | 221° |
| 2026-05-07 19:18 | 44.30025 | 13.34590 | 36013 ft | 393 kts | 221° |
| 2026-05-07 19:18 | 44.25619 | 13.30125 | 36014 ft | 394 kts | 221° |
| 2026-05-07 19:19 | 44.21206 | 13.25671 | 35989 ft | 394 kts | 221° |
| 2026-05-07 19:19 | 44.16786 | 13.21220 | 36006 ft | 394 kts | 221° |
| 2026-05-07 19:20 | 44.12366 | 13.16778 | 36009 ft | 394 kts | 221° |
| 2026-05-07 19:20 | 44.07943 | 13.12340 | 36024 ft | 394 kts | 221° |
| 2026-05-07 19:21 | 44.03517 | 13.07908 | 36010 ft | 395 kts | 221° |
| 2026-05-07 19:21 | 43.99098 | 13.03492 | 36004 ft | 395 kts | 221° |
| 2026-05-07 19:22 | 43.94765 | 12.99169 | 36001 ft | 395 kts | 221° |
| 2026-05-07 19:22 | 43.90356 | 12.94779 | 36001 ft | 394 kts | 221° |
| 2026-05-07 19:23 | 43.85931 | 12.90381 | 35983 ft | 394 kts | 221° |
| 2026-05-07 19:23 | 43.81515 | 12.86001 | 35998 ft | 393 kts | 221° |
| 2026-05-07 19:24 | 43.77103 | 12.81631 | 36000 ft | 392 kts | 221° |
| 2026-05-07 19:24 | 43.72688 | 12.77267 | 35999 ft | 392 kts | 221° |
| 2026-05-07 19:25 | 43.68283 | 12.72922 | 35998 ft | 391 kts | 221° |
| 2026-05-07 19:25 | 43.63885 | 12.68592 | 36004 ft | 390 kts | 221° |
| 2026-05-07 19:26 | 43.59504 | 12.64285 | 36007 ft | 389 kts | 221° |
| 2026-05-07 19:26 | 43.55126 | 12.59988 | 35970 ft | 387 kts | 221° |
| 2026-05-07 19:27 | 43.50805 | 12.55757 | 35999 ft | 383 kts | 221° |
| 2026-05-07 19:27 | 43.46489 | 12.51538 | 36006 ft | 384 kts | 221° |
| 2026-05-07 19:28 | 43.42152 | 12.47304 | 35993 ft | 385 kts | 221° |
| 2026-05-07 19:28 | 43.37793 | 12.43056 | 35989 ft | 386 kts | 220° |
| 2026-05-07 19:29 | 43.33431 | 12.38814 | 35977 ft | 387 kts | 220° |
| 2026-05-07 19:29 | 43.29058 | 12.34570 | 35978 ft | 388 kts | 220° |
| 2026-05-07 19:30 | 43.24680 | 12.30327 | 35976 ft | 388 kts | 220° |
| 2026-05-07 19:30 | 43.20295 | 12.26086 | 35973 ft | 388 kts | 220° |
| 2026-05-07 19:31 | 43.16655 | 12.22573 | 35945 ft | 388 kts | 220° |
| 2026-05-07 19:31 | 43.12278 | 12.18355 | 35985 ft | 387 kts | 220° |
| 2026-05-07 19:32 | 43.07906 | 12.14148 | 35980 ft | 386 kts | 220° |
| 2026-05-07 19:32 | 43.03537 | 12.09950 | 35987 ft | 385 kts | 220° |
| 2026-05-07 19:33 | 42.99188 | 12.05780 | 35965 ft | 385 kts | 220° |
| 2026-05-07 19:33 | 42.94828 | 12.01606 | 35991 ft | 385 kts | 220° |
| 2026-05-07 19:34 | 42.90578 | 11.97545 | 35982 ft | 385 kts | 220° |
| 2026-05-07 19:34 | 42.86211 | 11.93380 | 35986 ft | 385 kts | 220° |
| 2026-05-07 19:35 | 42.81868 | 11.89243 | 35994 ft | 386 kts | 220° |
| 2026-05-07 19:35 | 42.77491 | 11.85083 | 35993 ft | 386 kts | 219° |
| 2026-05-07 19:36 | 42.73110 | 11.80926 | 35994 ft | 386 kts | 219° |
| 2026-05-07 19:36 | 42.68728 | 11.76776 | 35987 ft | 386 kts | 219° |
| 2026-05-07 19:37 | 42.64342 | 11.72628 | 35991 ft | 387 kts | 219° |
| 2026-05-07 19:37 | 42.59943 | 11.68476 | 35984 ft | 387 kts | 219° |
| 2026-05-07 19:38 | 42.55542 | 11.64329 | 35992 ft | 388 kts | 219° |
| 2026-05-07 19:38 | 42.51126 | 11.60175 | 35979 ft | 389 kts | 219° |
| 2026-05-07 19:39 | 42.46703 | 11.56023 | 35987 ft | 389 kts | 219° |
| 2026-05-07 19:39 | 42.42271 | 11.51869 | 35963 ft | 390 kts | 218° |
| 2026-05-07 19:40 | 42.37836 | 11.47720 | 35977 ft | 390 kts | 218° |
| 2026-05-07 19:40 | 42.33393 | 11.43570 | 35989 ft | 391 kts | 218° |
| 2026-05-07 19:41 | 42.28946 | 11.39423 | 35987 ft | 391 kts | 218° |
| 2026-05-07 19:41 | 42.24485 | 11.35271 | 35986 ft | 391 kts | 218° |
| 2026-05-07 19:42 | 42.20025 | 11.31127 | 35980 ft | 392 kts | 218° |
| 2026-05-07 19:42 | 42.15566 | 11.26992 | 35997 ft | 392 kts | 218° |
| 2026-05-07 19:43 | 42.11121 | 11.22876 | 35984 ft | 392 kts | 218° |
| 2026-05-07 19:43 | 42.06655 | 11.18749 | 35947 ft | 392 kts | 218° |
| 2026-05-07 19:44 | 42.02192 | 11.14631 | 35970 ft | 391 kts | 218° |
| 2026-05-07 19:44 | 41.97746 | 11.10536 | 35979 ft | 391 kts | 218° |
| 2026-05-07 19:45 | 41.93324 | 11.06470 | 35966 ft | 387 kts | 218° |
| 2026-05-07 19:45 | 41.91137 | 11.04464 | 35804 ft | 381 kts | 218° |
| 2026-05-07 19:45 | 41.88980 | 11.02488 | 35555 ft | 373 kts | 218° |
| 2026-05-07 19:46 | 41.86859 | 11.00545 | 35152 ft | 369 kts | 218° |
| 2026-05-07 19:46 | 41.84868 | 10.98722 | 34831 ft | 365 kts | 218° |
| 2026-05-07 19:46 | 41.82790 | 10.96819 | 34459 ft | 362 kts | 218° |
| 2026-05-07 19:46 | 41.80729 | 10.94933 | 34096 ft | 360 kts | 218° |
| 2026-05-07 19:47 | 41.78676 | 10.93055 | 33698 ft | 358 kts | 218° |
| 2026-05-07 19:47 | 41.76643 | 10.91198 | 33291 ft | 355 kts | 218° |
| 2026-05-07 19:47 | 41.74624 | 10.89355 | 32903 ft | 352 kts | 218° |
| 2026-05-07 19:47 | 41.72630 | 10.87536 | 32536 ft | 349 kts | 218° |
| 2026-05-07 19:48 | 41.70646 | 10.85728 | 32189 ft | 347 kts | 217° |
| 2026-05-07 19:48 | 41.68674 | 10.83933 | 31826 ft | 344 kts | 217° |
| 2026-05-07 19:48 | 41.66712 | 10.82148 | 31464 ft | 342 kts | 217° |
| 2026-05-07 19:48 | 41.64766 | 10.80380 | 31133 ft | 339 kts | 217° |
| 2026-05-07 19:49 | 41.62851 | 10.78640 | 30785 ft | 337 kts | 217° |
| 2026-05-07 19:49 | 41.60920 | 10.76885 | 30134 ft | 341 kts | 217° |
| 2026-05-07 19:49 | 41.58946 | 10.75092 | 29294 ft | 345 kts | 217° |
| 2026-05-07 19:49 | 41.57007 | 10.73336 | 28929 ft | 336 kts | 217° |
| 2026-05-07 19:50 | 41.55103 | 10.71614 | 28539 ft | 327 kts | 217° |
| 2026-05-07 19:50 | 41.53242 | 10.69932 | 28190 ft | 324 kts | 217° |
| 2026-05-07 19:50 | 41.51389 | 10.68255 | 27836 ft | 323 kts | 217° |
| 2026-05-07 19:50 | 41.49538 | 10.66581 | 27493 ft | 324 kts | 217° |
| 2026-05-07 19:51 | 41.47664 | 10.64886 | 27162 ft | 333 kts | 217° |
| 2026-05-07 19:51 | 41.45729 | 10.63136 | 26807 ft | 342 kts | 216° |
| 2026-05-07 19:51 | 41.43769 | 10.61367 | 26433 ft | 341 kts | 216° |
| 2026-05-07 19:51 | 41.41814 | 10.59607 | 26068 ft | 339 kts | 216° |
| 2026-05-07 19:52 | 41.39872 | 10.57859 | 25709 ft | 337 kts | 216° |
| 2026-05-07 19:52 | 41.37961 | 10.56143 | 25372 ft | 335 kts | 216° |
| 2026-05-07 19:52 | 41.36040 | 10.54416 | 25010 ft | 334 kts | 216° |
| 2026-05-07 19:52 | 41.34125 | 10.52695 | 24662 ft | 332 kts | 215° |
| 2026-05-07 19:53 | 41.32218 | 10.50982 | 24306 ft | 331 kts | 215° |
| 2026-05-07 19:53 | 41.30313 | 10.49272 | 23954 ft | 330 kts | 215° |
| 2026-05-07 19:53 | 41.28417 | 10.47572 | 23587 ft | 329 kts | 214° |
| 2026-05-07 19:53 | 41.26530 | 10.45881 | 23213 ft | 327 kts | 214° |
| 2026-05-07 19:54 | 41.24651 | 10.44199 | 22838 ft | 324 kts | 214° |
| 2026-05-07 19:54 | 41.22790 | 10.42533 | 22499 ft | 322 kts | 214° |
| 2026-05-07 19:54 | 41.20947 | 10.40886 | 22141 ft | 319 kts | 214° |
| 2026-05-07 19:54 | 41.19114 | 10.39248 | 21825 ft | 316 kts | 214° |
| 2026-05-07 19:55 | 41.17296 | 10.37624 | 21498 ft | 314 kts | 214° |
| 2026-05-07 19:55 | 41.15496 | 10.36019 | 21176 ft | 312 kts | 214° |
| 2026-05-07 19:55 | 41.13707 | 10.34423 | 20854 ft | 309 kts | 214° |
| 2026-05-07 19:55 | 41.11932 | 10.32841 | 20536 ft | 307 kts | 214° |
| 2026-05-07 19:56 | 41.10170 | 10.31271 | 20226 ft | 305 kts | 214° |
| 2026-05-07 19:56 | 41.08413 | 10.29707 | 19901 ft | 304 kts | 214° |
| 2026-05-07 19:56 | 41.06667 | 10.28154 | 19592 ft | 302 kts | 214° |
| 2026-05-07 19:56 | 41.04937 | 10.26616 | 19286 ft | 301 kts | 213° |
| 2026-05-07 19:57 | 41.03211 | 10.25082 | 18978 ft | 299 kts | 213° |
| 2026-05-07 19:57 | 41.01494 | 10.23556 | 18667 ft | 299 kts | 213° |
| 2026-05-07 19:57 | 40.99786 | 10.22041 | 18367 ft | 298 kts | 213° |
| 2026-05-07 19:57 | 40.98081 | 10.20529 | 18013 ft | 297 kts | 213° |
| 2026-05-07 19:58 | 40.96374 | 10.19018 | 17698 ft | 296 kts | 213° |
| 2026-05-07 19:58 | 40.94712 | 10.17464 | 17364 ft | 295 kts | 222° |
| 2026-05-07 19:58 | 40.93553 | 10.15269 | 17073 ft | 294 kts | 247° |
| 2026-05-07 19:58 | 40.93104 | 10.12666 | 16804 ft | 294 kts | 268° |
| 2026-05-07 19:59 | 40.93275 | 10.09983 | 16535 ft | 293 kts | 275° |
| 2026-05-07 19:59 | 40.93555 | 10.07309 | 16237 ft | 296 kts | 276° |
| 2026-05-07 19:59 | 40.93848 | 10.04602 | 15942 ft | 300 kts | 276° |
| 2026-05-07 19:59 | 40.94141 | 10.01839 | 15644 ft | 308 kts | 276° |
| 2026-05-07 20:00 | 40.94418 | 9.99140 | 15337 ft | 311 kts | 276° |
| 2026-05-07 20:00 | 40.94701 | 9.96326 | 15016 ft | 309 kts | 276° |
| 2026-05-07 20:00 | 40.94981 | 9.93509 | 14701 ft | 308 kts | 276° |
| 2026-05-07 20:00 | 40.95124 | 9.90703 | 14367 ft | 305 kts | 261° |
| 2026-05-07 20:01 | 40.94524 | 9.88071 | 14061 ft | 300 kts | 239° |
| 2026-05-07 20:01 | 40.93403 | 9.85776 | 13742 ft | 298 kts | 233° |
| 2026-05-07 20:01 | 40.92231 | 9.83578 | 13408 ft | 298 kts | 233° |
| 2026-05-07 20:01 | 40.91030 | 9.81336 | 13083 ft | 296 kts | 233° |
| 2026-05-07 20:02 | 40.89855 | 9.79116 | 12752 ft | 295 kts | 233° |
| 2026-05-07 20:02 | 40.88698 | 9.76906 | 12485 ft | 292 kts | 233° |
| 2026-05-07 20:02 | 40.87585 | 9.74772 | 12370 ft | 284 kts | 233° |
| 2026-05-07 20:02 | 40.86488 | 9.72666 | 12247 ft | 276 kts | 233° |
| 2026-05-07 20:03 | 40.85415 | 9.70608 | 12020 ft | 273 kts | 233° |
| 2026-05-07 20:03 | 40.84345 | 9.68560 | 11760 ft | 271 kts | 233° |
| 2026-05-07 20:03 | 40.83285 | 9.66528 | 11498 ft | 270 kts | 233° |
| 2026-05-07 20:03 | 40.82229 | 9.64507 | 11234 ft | 268 kts | 233° |
| 2026-05-07 20:04 | 40.81178 | 9.62498 | 10971 ft | 267 kts | 233° |
| 2026-05-07 20:04 | 40.80128 | 9.60494 | 10715 ft | 267 kts | 233° |
| 2026-05-07 20:04 | 40.79082 | 9.58496 | 10444 ft | 266 kts | 233° |
| 2026-05-07 20:04 | 40.78037 | 9.56497 | 10179 ft | 266 kts | 232° |
| 2026-05-07 20:05 | 40.76996 | 9.54507 | 9921 ft | 265 kts | 232° |
| 2026-05-07 20:05 | 40.75958 | 9.52524 | 9631 ft | 264 kts | 232° |
| 2026-05-07 20:05 | 40.74920 | 9.50545 | 9356 ft | 263 kts | 232° |
| 2026-05-07 20:05 | 40.73900 | 9.48599 | 9080 ft | 263 kts | 232° |
| 2026-05-07 20:06 | 40.72868 | 9.46633 | 8810 ft | 263 kts | 232° |
| 2026-05-07 20:06 | 40.71832 | 9.44664 | 8536 ft | 262 kts | 232° |
| 2026-05-07 20:06 | 40.70803 | 9.42705 | 8270 ft | 261 kts | 232° |
| 2026-05-07 20:06 | 40.69778 | 9.40760 | 8001 ft | 260 kts | 232° |
| 2026-05-07 20:07 | 40.68753 | 9.38819 | 7728 ft | 260 kts | 232° |
| 2026-05-07 20:07 | 40.67741 | 9.36900 | 7484 ft | 253 kts | 232° |
| 2026-05-07 20:07 | 40.66936 | 9.34885 | 7089 ft | 256 kts | 257° |
| 2026-05-07 20:07 | 40.67115 | 9.32579 | 6689 ft | 259 kts | 294° |
| 2026-05-07 20:08 | 40.68111 | 9.30742 | 6647 ft | 240 kts | 317° |
| 2026-05-07 20:08 | 40.69445 | 9.29586 | 6517 ft | 224 kts | 339° |
| 2026-05-07 20:08 | 40.70910 | 9.29065 | 6238 ft | 217 kts | 350° |
| 2026-05-07 20:08 | 40.72384 | 9.28718 | 5801 ft | 218 kts | 351° |
| 2026-05-07 20:09 | 40.73920 | 9.28366 | 5145 ft | 229 kts | 351° |
| 2026-05-07 20:09 | 40.75432 | 9.28013 | 5041 ft | 214 kts | 351° |
| 2026-05-07 20:09 | 40.76870 | 9.27876 | 4689 ft | 207 kts | 16° |
| 2026-05-07 20:10 | 40.78672 | 9.30321 | 4256 ft | 195 kts | 56° |
| 2026-05-07 20:10 | 40.79454 | 9.31762 | 3963 ft | 192 kts | 57° |
| 2026-05-07 20:10 | 40.80188 | 9.33150 | 3687 ft | 186 kts | 57° |
| 2026-05-07 20:10 | 40.80907 | 9.34529 | 3422 ft | 180 kts | 57° |
| 2026-05-07 20:11 | 40.81593 | 9.35849 | 3171 ft | 175 kts | 57° |
| 2026-05-07 20:11 | 40.82280 | 9.37171 | 2895 ft | 174 kts | 57° |
| 2026-05-07 20:11 | 40.82960 | 9.38481 | 2622 ft | 173 kts | 57° |
| 2026-05-07 20:11 | 40.83634 | 9.39780 | 2357 ft | 174 kts | 56° |
| 2026-05-07 20:12 | 40.84319 | 9.41097 | 2078 ft | 175 kts | 56° |
| 2026-05-07 20:12 | 40.85003 | 9.42411 | 1812 ft | 172 kts | 56° |
| 2026-05-07 20:12 | 40.85685 | 9.43722 | 1529 ft | 168 kts | 55° |
| 2026-05-07 20:12 | 40.86317 | 9.44937 | 1313 ft | 158 kts | 55° |
| 2026-05-07 20:13 | 40.86923 | 9.46102 | 1050 ft | 151 kts | 55° |
| 2026-05-07 20:13 | 40.87519 | 9.47246 | 816 ft | 151 kts | 54° |
| 2026-05-07 20:13 | 40.88112 | 9.48383 | 601 ft | 150 kts | 55° |
| 2026-05-07 20:13 | 40.88699 | 9.49525 | 368 ft | 150 kts | 56° |
| 2026-05-07 20:14 | 40.89284 | 9.50654 | 109 ft | 148 kts | 55° |
| 2026-05-07 20:14 | 40.89837 | 9.51707 | 30 ft | 118 kts | 55° |
| 2026-05-07 20:14 | 40.90181 | 9.52364 | 34 ft | 56 kts | 56° |
| 2026-05-07 20:14 | 40.90330 | 9.52645 | 33 ft | 25 kts | 49° |
| 2026-05-07 20:15 | 40.90445 | 9.52656 | 33 ft | 15 kts | 292° |
| 2026-05-07 20:15 | 40.90455 | 9.52555 | 33 ft | 9 kts | 272° |
| 2026-05-07 20:15 | 40.90447 | 9.52481 | 33 ft | 8 kts | 238° |
| 2026-05-07 20:15 | 40.90414 | 9.52419 | 33 ft | 8 kts | 235° |
| 2026-05-07 20:16 | 40.90383 | 9.52360 | 33 ft | 8 kts | 235° |
| 2026-05-07 20:16 | 40.90353 | 9.52302 | 33 ft | 8 kts | 235° |
| 2026-05-07 20:16 | 40.90324 | 9.52246 | 33 ft | 7 kts | 235° |
| 2026-05-07 20:16 | 40.90296 | 9.52192 | 33 ft | 7 kts | 235° |
| 2026-05-07 20:17 | 40.90269 | 9.52140 | 33 ft | 7 kts | 235° |
| 2026-05-07 20:17 | 40.90242 | 9.52089 | 33 ft | 7 kts | 235° |
| 2026-05-07 20:17 | 40.90224 | 9.52055 | 33 ft | 7 kts | 235° |
| 2026-05-07 20:17 | 40.90198 | 9.52005 | 33 ft | 7 kts | 235° |
| 2026-05-07 20:18 | 40.90145 | 9.51905 | 33 ft | 13 kts | 235° |
| 2026-05-07 20:18 | 40.90087 | 9.51793 | 33 ft | 16 kts | 235° |
| 2026-05-07 20:18 | 40.90049 | 9.51721 | 33 ft | 14 kts | 235° |
| 2026-05-07 20:18 | 40.89995 | 9.51617 | 33 ft | 14 kts | 235° |
| 2026-05-07 20:19 | 40.89992 | 9.51522 | 32 ft | 7 kts | 331° |
| 2026-05-07 20:19 | 40.90036 | 9.51492 | 33 ft | 7 kts | 327° |
| 2026-05-07 20:19 | 40.90064 | 9.51442 | 32 ft | 8 kts | 276° |
| 2026-05-07 20:19 | 40.90078 | 9.51383 | 32 ft | 8 kts | 348° |
| 2026-05-07 20:20 | 40.90092 | 9.51384 | 33 ft | 1 kts | 11° |
| 2026-05-07 20:20 | 40.90102 | 9.51388 | 33 ft | 2 kts | 18° |
| 2026-05-07 20:20 | 40.90110 | 9.51392 | 33 ft | 1 kts | 21° |
| 2026-05-07 20:20 | 40.90110 | 9.51393 | 33 ft | 0 kts | 21° |